Time;durP1;ratioP1;P1;durP2;ratioP2;P2;SDS_P1;SDS_P2;PMS_P1;PMS_P2;Temp;Humidity;BMP_temperature;BMP_pressure;BME280_temperature;BME280_humidity;BME280_pressure;Samples;Min_cycle;Max_cycle;Signal;HPM_P1;HPM_P2
2023/06/10 07:24:32;;;;;;;17.83;15.93;;;;;;;;;;6166248;22;1387945;-94
2023/06/10 08:35:39;;;;;;;24.98;20.45;;;;;;;;;;6213229;23;20096;-96
2023/06/10 08:38:06;;;;;;;24.80;20.98;;;;;;;;;;6147788;23;20020;-96
2023/06/10 08:41:03;;;;;;;27.23;22.58;;;;;;;;;;6120251;23;20093;-96
2023/06/10 08:43:33;;;;;;;25.55;22.02;;;;;;;;;;6111805;23;20017;-96
2023/06/10 08:46:01;;;;;;;25.75;22.95;;;;;;;;;;6116965;23;20089;-96
2023/06/10 08:48:30;;;;;;;24.85;22.25;;;;;;;;;;6111182;23;20323;-95
2023/06/10 08:53:38;;;;;;;22.00;19.70;;;;;;;;;;6279003;22;20031;-96
2023/06/10 08:58:49;;;;;;;27.13;23.48;;;;;;;;;;6302929;22;20010;-95
2023/06/10 09:01:16;;;;;;;24.30;21.60;;;;;;;;;;6294807;22;20014;-95
2023/06/10 09:03:48;;;;;;;25.70;22.90;;;;;;;;;;6305635;22;20051;-95
2023/06/10 09:06:33;;;;;;;26.50;22.60;;;;;;;;;;6301513;22;20098;-95
2023/06/10 09:09:08;;;;;;;29.13;24.75;;;;;;;;;;6303907;22;20000;-94
2023/06/10 09:11:33;;;;;;;28.67;23.98;;;;;;;;;;6300458;22;20026;-95
2023/06/10 09:13:59;;;;;;;28.40;24.10;;;;;;;;;;6288296;22;20003;-93
2023/06/10 09:16:25;;;;;;;22.27;19.52;;;;;;;;;;6292535;22;19999;-92
2023/06/10 09:18:55;;;;;;;22.92;20.52;;;;;;;;;;6292856;22;20016;-96
2023/06/10 09:21:24;;;;;;;29.67;24.40;;;;;;;;;;6281873;22;20064;-96
2023/06/10 09:23:50;;;;;;;30.38;24.17;;;;;;;;;;6278162;22;20045;-93
2023/06/10 09:26:18;;;;;;;28.95;24.95;;;;;;;;;;6284057;22;20453;-95
2023/06/10 09:28:47;;;;;;;28.73;23.83;;;;;;;;;;6278214;22;20407;-88
2023/06/10 09:31:13;;;;;;;29.65;24.55;;;;;;;;;;6276391;22;20065;-92
2023/06/10 09:33:39;;;;;;;30.73;25.52;;;;;;;;;;6278549;22;20004;-87
2023/06/10 09:36:05;;;;;;;26.05;21.88;;;;;;;;;;6277798;22;19996;-88
2023/06/10 09:38:33;;;;;;;28.58;24.23;;;;;;;;;;6276153;22;20027;-87
2023/06/10 09:41:01;;;;;;;26.55;22.65;;;;;;;;;;6277945;22;20377;-87
2023/06/10 09:43:44;;;;;;;26.88;23.15;;;;;;;;;;6277780;22;20010;-88
2023/06/10 09:46:19;;;;;;;26.65;23.55;;;;;;;;;;6279409;22;20006;-86
2023/06/10 09:48:46;;;;;;;33.00;27.38;;;;;;;;;;6279403;22;20000;-86
2023/06/10 09:51:17;;;;;;;28.35;22.55;;;;;;;;;;6278615;22;20422;-86
2023/06/10 09:53:42;;;;;;;30.15;25.88;;;;;;;;;;6279289;22;20007;-88
2023/06/10 09:56:08;;;;;;;24.98;21.38;;;;;;;;;;6278591;22;20011;-87
2023/06/10 09:58:35;;;;;;;25.75;21.45;;;;;;;;;;6281953;22;20007;-90
2023/06/10 10:01:05;;;;;;;28.15;24.70;;;;;;;;;;6278782;22;20054;-90
2023/06/10 10:03:30;;;;;;;25.23;21.67;;;;;;;;;;6276071;22;20014;-87
2023/06/10 10:06:00;;;;;;;27.70;23.85;;;;;;;;;;6275970;22;20027;-87
2023/06/10 10:08:25;;;;;;;25.27;21.75;;;;;;;;;;6275559;22;20141;-88
2023/06/10 10:10:51;;;;;;;33.47;25.40;;;;;;;;;;6276149;22;20387;-92
2023/06/10 10:13:18;;;;;;;27.42;24.00;;;;;;;;;;6274005;22;20019;-91
2023/06/10 10:15:44;;;;;;;30.80;26.65;;;;;;;;;;6273849;22;20138;-93
2023/06/10 10:18:14;;;;;;;31.42;25.35;;;;;;;;;;6274421;22;19999;-91
2023/06/10 10:20:46;;;;;;;27.13;22.67;;;;;;;;;;6276226;22;20004;-90
2023/06/10 10:23:17;;;;;;;26.08;23.27;;;;;;;;;;6275533;22;20011;-87
2023/06/10 10:25:43;;;;;;;25.23;21.42;;;;;;;;;;6275103;22;20075;-89
2023/06/10 10:28:11;;;;;;;25.27;21.58;;;;;;;;;;6274126;22;20007;-89
2023/06/10 10:30:48;;;;;;;28.65;24.98;;;;;;;;;;6275041;22;20004;-95
2023/06/10 10:33:22;;;;;;;25.20;21.55;;;;;;;;;;6276111;22;20109;-94
2023/06/10 10:35:48;;;;;;;30.55;25.42;;;;;;;;;;6250285;22;20417;-91
2023/06/10 10:38:14;;;;;;;29.77;24.73;;;;;;;;;;6281556;22;20016;-93
2023/06/10 10:40:40;;;;;;;32.28;26.58;;;;;;;;;;6277947;22;20049;-88
2023/06/10 10:43:06;;;;;;;33.30;27.48;;;;;;;;;;6278096;22;20030;-94
2023/06/10 10:45:34;;;;;;;35.58;28.55;;;;;;;;;;6281028;22;20014;-94
2023/06/10 10:48:05;;;;;;;33.22;28.23;;;;;;;;;;6278658;22;20007;-95
2023/06/10 10:50:31;;;;;;;31.17;26.70;;;;;;;;;;6281586;22;20003;-94
2023/06/10 10:52:59;;;;;;;23.23;20.73;;;;;;;;;;6280821;22;20035;-93
2023/06/10 10:55:26;;;;;;;30.80;25.73;;;;;;;;;;6277593;22;20027;-93
2023/06/10 10:58:04;;;;;;;40.75;31.73;;;;;;;;;;6277216;22;20007;-95
2023/06/10 11:00:31;;;;;;;34.40;29.63;;;;;;;;;;6275899;22;20003;-87
2023/06/10 11:03:06;;;;;;;28.90;23.50;;;;;;;;;;6275993;22;20324;-87
2023/06/10 11:05:44;;;;;;;29.52;23.70;;;;;;;;;;6276023;22;20501;-88
2023/06/10 11:08:11;;;;;;;30.75;25.52;;;;;;;;;;6277552;22;19999;-89
2023/06/10 11:10:41;;;;;;;25.25;20.73;;;;;;;;;;6276014;22;20083;-87
2023/06/10 11:13:08;;;;;;;29.52;24.80;;;;;;;;;;6275394;22;20086;-90
2023/06/10 11:15:38;;;;;;;25.40;22.27;;;;;;;;;;6277246;22;20004;-88
2023/06/10 11:18:38;;;;;;;25.88;22.20;;;;;;;;;;6276998;22;20008;-87
2023/06/10 11:21:04;;;;;;;28.73;24.20;;;;;;;;;;6272356;22;20008;-87
2023/06/10 11:23:50;;;;;;;25.63;21.23;;;;;;;;;;6273777;22;20049;-86
2023/06/10 11:26:45;;;;;;;29.75;25.88;;;;;;;;;;6189594;23;20009;-88
2023/06/10 11:29:10;;;;;;;31.85;27.40;;;;;;;;;;6161917;23;20532;-87
2023/06/10 11:31:40;;;;;;;40.15;32.65;;;;;;;;;;6183534;23;20025;-87
2023/06/10 11:34:07;;;;;;;38.15;32.65;;;;;;;;;;6183686;23;20456;-87
2023/06/10 11:36:40;;;;;;;35.75;27.05;;;;;;;;;;6160514;23;20364;-87
2023/06/10 11:39:06;;;;;;;36.63;31.60;;;;;;;;;;6185697;23;20009;-87
2023/06/10 11:41:34;;;;;;;25.20;21.15;;;;;;;;;;6186626;23;20482;-93
2023/06/10 11:44:10;;;;;;;28.90;22.75;;;;;;;;;;6186848;23;20096;-96
2023/06/10 11:46:36;;;;;;;39.10;31.60;;;;;;;;;;6161874;23;20015;-95
2023/06/10 11:49:05;;;;;;;36.75;29.50;;;;;;;;;;6161894;23;20028;-95
2023/06/10 11:51:37;;;;;;;29.50;25.83;;;;;;;;;;6161401;23;20072;-94
2023/06/10 11:54:03;;;;;;;37.30;29.13;;;;;;;;;;6161710;23;20017;-94
2023/06/10 11:56:30;;;;;;;34.95;28.20;;;;;;;;;;6161624;23;20067;-93
2023/06/10 11:58:57;;;;;;;29.77;24.70;;;;;;;;;;6161174;23;20001;-95
2023/06/10 12:01:26;;;;;;;30.67;23.45;;;;;;;;;;6161171;23;20009;-93
2023/06/10 12:04:06;;;;;;;30.23;24.42;;;;;;;;;;6244004;22;20043;-84
2023/06/10 12:06:49;;;;;;;28.30;23.80;;;;;;;;;;6280698;22;20411;-95
2023/06/10 12:09:24;;;;;;;25.33;20.23;;;;;;;;;;6279100;22;20004;-92
2023/06/10 12:12:03;;;;;;;25.98;21.27;;;;;;;;;;6284656;22;20004;-90
2023/06/10 12:14:57;;;;;;;27.00;20.83;;;;;;;;;;6278943;22;20035;-90
2023/06/10 12:17:36;;;;;;;25.45;19.42;;;;;;;;;;6280624;22;20000;-96
2023/06/10 12:20:09;;;;;;;24.83;21.13;;;;;;;;;;6282995;22;20038;-96
2023/06/10 12:22:44;;;;;;;28.25;21.65;;;;;;;;;;6254810;22;20007;-94
2023/06/10 12:25:11;;;;;;;25.25;19.38;;;;;;;;;;6279030;22;20411;-83
2023/06/10 12:27:37;;;;;;;18.73;16.35;;;;;;;;;;6279134;22;20000;-83
2023/06/10 12:30:05;;;;;;;24.02;21.42;;;;;;;;;;6278279;22;20022;-86
2023/06/10 12:32:45;;;;;;;28.88;22.70;;;;;;;;;;6276784;22;20430;-84
2023/06/10 12:35:12;;;;;;;27.65;22.20;;;;;;;;;;6278770;22;20000;-83
2023/06/10 12:37:39;;;;;;;28.25;20.95;;;;;;;;;;6278364;22;20019;-84
2023/06/10 12:40:08;;;;;;;23.58;20.40;;;;;;;;;;6278191;22;20007;-84
2023/06/10 12:42:35;;;;;;;20.80;17.48;;;;;;;;;;6278803;22;20003;-84
2023/06/10 12:45:01;;;;;;;22.95;18.73;;;;;;;;;;6278459;22;20031;-86
2023/06/10 12:47:32;;;;;;;24.15;19.17;;;;;;;;;;6278252;22;19999;-86
2023/06/10 12:49:58;;;;;;;25.35;20.33;;;;;;;;;;6278353;22;20027;-85
2023/06/10 12:52:25;;;;;;;28.08;21.98;;;;;;;;;;6277928;22;20045;-85
2023/06/10 12:54:50;;;;;;;23.80;19.58;;;;;;;;;;6276647;22;20003;-85
2023/06/10 12:57:16;;;;;;;24.23;19.83;;;;;;;;;;6278078;22;20331;-84
2023/06/10 12:59:45;;;;;;;25.05;19.52;;;;;;;;;;6278222;22;20050;-85
2023/06/10 13:02:13;;;;;;;23.23;19.48;;;;;;;;;;6278414;22;20004;-84
2023/06/10 13:04:39;;;;;;;26.13;19.95;;;;;;;;;;6278178;22;20300;-90
2023/06/10 13:07:04;;;;;;;23.65;19.58;;;;;;;;;;6278160;22;20411;-86
2023/06/10 13:09:31;;;;;;;18.45;14.32;;;;;;;;;;6278642;22;20006;-96
2023/06/10 13:11:56;;;;;;;22.13;16.40;;;;;;;;;;6276522;22;20027;-85
2023/06/10 13:14:22;;;;;;;23.25;17.92;;;;;;;;;;6278489;22;20412;-86
2023/06/10 13:16:47;;;;;;;17.50;14.50;;;;;;;;;;6278099;22;20481;-87
2023/06/10 13:19:13;;;;;;;27.15;21.88;;;;;;;;;;6277666;22;20023;-87
2023/06/10 13:21:38;;;;;;;23.45;20.08;;;;;;;;;;6278021;22;20430;-84
2023/06/10 13:24:04;;;;;;;23.77;18.98;;;;;;;;;;6278111;22;19996;-87
2023/06/10 13:26:29;;;;;;;26.67;20.05;;;;;;;;;;6278029;22;20074;-84
2023/06/10 13:28:55;;;;;;;22.77;18.42;;;;;;;;;;6278091;22;20497;-85
2023/06/10 13:31:20;;;;;;;25.73;19.50;;;;;;;;;;6278118;22;20003;-84
2023/06/10 13:33:46;;;;;;;26.95;20.15;;;;;;;;;;6278242;22;20030;-84
2023/06/10 13:36:12;;;;;;;23.23;15.90;;;;;;;;;;6277915;22;20079;-84
2023/06/10 13:38:38;;;;;;;24.15;19.52;;;;;;;;;;6277891;22;20011;-89
2023/06/10 13:41:03;;;;;;;25.42;19.98;;;;;;;;;;6276497;22;20018;-90
2023/06/10 13:43:29;;;;;;;24.83;20.05;;;;;;;;;;6250674;22;20450;-88
2023/06/10 13:45:55;;;;;;;18.48;14.65;;;;;;;;;;6277876;22;20003;-87
2023/06/10 13:48:21;;;;;;;27.13;21.60;;;;;;;;;;6277819;22;20022;-90
2023/06/10 13:50:46;;;;;;;16.15;13.80;;;;;;;;;;6276303;22;20010;-89
2023/06/10 13:53:12;;;;;;;17.83;12.85;;;;;;;;;;6277513;22;20007;-86
2023/06/10 13:55:37;;;;;;;16.92;13.38;;;;;;;;;;6278241;22;20000;-88
2023/06/10 13:58:03;;;;;;;15.02;12.23;;;;;;;;;;6278700;22;20003;-88
2023/06/10 14:00:29;;;;;;;15.00;13.40;;;;;;;;;;6277191;22;20004;-93
2023/06/10 14:02:54;;;;;;;15.50;13.00;;;;;;;;;;6278216;22;20049;-91
2023/06/10 14:05:19;;;;;;;20.08;14.55;;;;;;;;;;6281403;22;20014;-90
2023/06/10 14:07:45;;;;;;;16.08;12.35;;;;;;;;;;6280197;22;20007;-83
2023/06/10 14:10:10;;;;;;;17.45;13.60;;;;;;;;;;6277731;22;20105;-89
2023/06/10 14:12:36;;;;;;;21.95;17.38;;;;;;;;;;6277702;22;20003;-89
2023/06/10 14:15:02;;;;;;;21.65;18.33;;;;;;;;;;6278037;22;20047;-89
2023/06/10 14:17:28;;;;;;;23.25;16.65;;;;;;;;;;6279643;22;19999;-95
2023/06/10 14:19:53;;;;;;;23.73;17.77;;;;;;;;;;6279209;22;20061;-88
2023/06/10 14:22:19;;;;;;;23.80;18.10;;;;;;;;;;6279690;22;20034;-95
2023/06/10 14:24:44;;;;;;;21.75;16.23;;;;;;;;;;6281189;22;20004;-93
2023/06/10 14:27:10;;;;;;;26.23;21.45;;;;;;;;;;6281918;22;20011;-95
2023/06/10 14:29:35;;;;;;;21.38;17.17;;;;;;;;;;6283194;22;20003;-91
2023/06/10 14:32:01;;;;;;;23.55;18.50;;;;;;;;;;6280851;22;20003;-96
2023/06/10 14:34:29;;;;;;;18.83;15.70;;;;;;;;;;6278649;22;20488;-95
2023/06/10 14:36:55;;;;;;;22.45;16.98;;;;;;;;;;6281981;22;20006;-95
2023/06/10 14:39:21;;;;;;;21.95;17.35;;;;;;;;;;6279775;22;20003;-92
2023/06/10 14:41:46;;;;;;;22.92;18.92;;;;;;;;;;6277743;22;20434;-91
2023/06/10 14:44:12;;;;;;;19.75;15.75;;;;;;;;;;6281051;22;20390;-85
2023/06/10 14:46:37;;;;;;;17.17;13.77;;;;;;;;;;6277822;22;20004;-92
2023/06/10 14:49:02;;;;;;;18.48;14.48;;;;;;;;;;6283323;22;20339;-93
2023/06/10 14:51:28;;;;;;;16.33;13.57;;;;;;;;;;6281725;22;20000;-96
2023/06/10 14:53:54;;;;;;;13.27;10.80;;;;;;;;;;6285120;22;20387;-95
2023/06/10 14:56:19;;;;;;;17.42;14.32;;;;;;;;;;6283594;22;20008;-94
2023/06/10 14:58:44;;;;;;;15.30;12.90;;;;;;;;;;6283640;22;20326;-94
2023/06/10 15:01:10;;;;;;;13.00;11.40;;;;;;;;;;6283190;22;20038;-96
2023/06/10 15:03:36;;;;;;;14.25;10.95;;;;;;;;;;6283998;22;20013;-94
2023/06/10 15:06:01;;;;;;;21.35;15.65;;;;;;;;;;6279003;22;20011;-93
2023/06/10 15:08:32;;;;;;;13.73;10.98;;;;;;;;;;6285278;22;20058;-96
2023/06/10 15:11:00;;;;;;;18.55;14.38;;;;;;;;;;6285029;22;20407;-95
2023/06/10 15:13:27;;;;;;;15.45;13.65;;;;;;;;;;6283530;22;20011;-95
2023/06/10 15:15:59;;;;;;;15.18;13.02;;;;;;;;;;6290342;22;19992;-96
2023/06/10 15:18:24;;;;;;;16.92;14.13;;;;;;;;;;6272824;22;20064;-93
2023/06/10 15:20:50;;;;;;;18.17;15.13;;;;;;;;;;6281507;22;20011;-93
2023/06/10 15:23:15;;;;;;;20.42;16.08;;;;;;;;;;6284687;22;20053;-95
2023/06/10 15:25:41;;;;;;;16.15;12.45;;;;;;;;;;6253841;22;20016;-91
2023/06/10 15:28:07;;;;;;;16.08;11.93;;;;;;;;;;6253493;22;20011;-95
2023/06/10 15:30:32;;;;;;;17.83;12.38;;;;;;;;;;6260376;23;20321;-96
2023/06/10 15:32:58;;;;;;;15.65;11.80;;;;;;;;;;6248264;22;20012;-88
2023/06/10 15:35:23;;;;;;;13.45;11.77;;;;;;;;;;6247848;23;20020;-91
2023/06/10 15:37:49;;;;;;;15.05;11.15;;;;;;;;;;6246413;23;20336;-86
2023/06/10 15:40:14;;;;;;;11.63;9.90;;;;;;;;;;6218491;23;20023;-90
2023/06/10 15:42:40;;;;;;;12.70;11.35;;;;;;;;;;6222125;23;20005;-95
2023/06/10 15:45:06;;;;;;;14.90;10.95;;;;;;;;;;6245955;23;20008;-91
2023/06/10 15:47:31;;;;;;;10.63;9.10;;;;;;;;;;6194125;23;20000;-93
2023/06/10 15:49:57;;;;;;;12.65;9.73;;;;;;;;;;6222032;23;20000;-92
2023/06/10 15:52:22;;;;;;;16.30;11.80;;;;;;;;;;6222467;23;20508;-89
2023/06/10 15:54:47;;;;;;;13.07;10.93;;;;;;;;;;6243673;23;20382;-90
2023/06/10 15:57:13;;;;;;;14.77;12.05;;;;;;;;;;6219861;23;20062;-91
2023/06/10 16:02:29;;;;;;;19.02;15.70;;;;;;;;;;6287147;22;20023;-95
2023/06/10 16:04:55;;;;;;;13.88;11.27;;;;;;;;;;6290845;22;20015;-96
2023/06/10 16:07:20;;;;;;;12.88;9.68;;;;;;;;;;6298188;22;20073;-93
2023/06/10 16:09:46;;;;;;;15.30;10.77;;;;;;;;;;6311013;22;20330;-92
2023/06/10 16:12:11;;;;;;;14.15;10.55;;;;;;;;;;6286614;22;20072;-96
2023/06/10 16:14:36;;;;;;;15.02;10.95;;;;;;;;;;6287708;22;20004;-88
2023/06/10 16:17:02;;;;;;;12.98;9.77;;;;;;;;;;6318718;22;20006;-95
2023/06/10 16:19:29;;;;;;;10.77;8.60;;;;;;;;;;6294319;22;19999;-94
2023/06/10 16:21:56;;;;;;;9.90;8.85;;;;;;;;;;6322422;22;20004;-96
2023/06/10 16:24:21;;;;;;;9.68;8.18;;;;;;;;;;6303795;22;20003;-92
2023/06/10 16:26:48;;;;;;;11.70;9.52;;;;;;;;;;6329009;22;20047;-91
2023/06/10 16:29:14;;;;;;;14.90;11.48;;;;;;;;;;6321484;22;20011;-89
2023/06/10 16:31:40;;;;;;;13.10;10.68;;;;;;;;;;6284647;22;20004;-90
2023/06/10 16:34:05;;;;;;;23.58;18.10;;;;;;;;;;6310015;22;20070;-88
2023/06/10 16:36:31;;;;;;;27.50;20.98;;;;;;;;;;6314911;22;20003;-89
2023/06/10 16:38:57;;;;;;;29.42;21.95;;;;;;;;;;6282024;22;20015;-93
2023/06/10 16:41:23;;;;;;;18.42;14.13;;;;;;;;;;6310389;22;20018;-86
2023/06/10 16:43:49;;;;;;;16.65;11.60;;;;;;;;;;6309354;22;20330;-88
2023/06/10 16:46:14;;;;;;;12.25;10.98;;;;;;;;;;6309246;22;20062;-85
2023/06/10 16:48:42;;;;;;;16.17;11.20;;;;;;;;;;6312156;22;20007;-90
2023/06/10 16:51:07;;;;;;;13.80;11.80;;;;;;;;;;6283043;22;19999;-91
2023/06/10 16:53:33;;;;;;;12.23;10.93;;;;;;;;;;6283353;22;20007;-93
2023/06/10 16:55:58;;;;;;;10.63;9.52;;;;;;;;;;6283888;22;20034;-94
2023/06/10 16:58:24;;;;;;;16.17;9.73;;;;;;;;;;6309536;22;20473;-90
2023/06/10 17:00:49;;;;;;;12.57;9.60;;;;;;;;;;6310966;22;20034;-83
2023/06/10 17:03:15;;;;;;;9.20;8.30;;;;;;;;;;6287204;22;20602;-88
2023/06/10 17:05:41;;;;;;;11.38;9.57;;;;;;;;;;6311110;22;19999;-89
2023/06/10 17:08:06;;;;;;;9.68;8.55;;;;;;;;;;6288225;22;19999;-92
2023/06/10 17:10:32;;;;;;;9.02;7.82;;;;;;;;;;6321683;22;20030;-94
2023/06/10 17:12:58;;;;;;;9.55;8.55;;;;;;;;;;6290737;22;20003;-92
2023/06/10 17:15:23;;;;;;;10.65;9.10;;;;;;;;;;6311117;22;19999;-92
2023/06/10 17:17:49;;;;;;;13.07;10.73;;;;;;;;;;6314082;22;20035;-90
2023/06/10 17:20:16;;;;;;;11.40;10.20;;;;;;;;;;6288106;22;20003;-92
2023/06/10 17:22:42;;;;;;;13.82;10.75;;;;;;;;;;6316193;22;20027;-95
2023/06/10 17:25:08;;;;;;;11.48;9.57;;;;;;;;;;6289707;22;20003;-90
2023/06/10 17:27:33;;;;;;;11.23;9.95;;;;;;;;;;6292634;22;20002;-94
2023/06/10 17:29:59;;;;;;;21.13;17.70;;;;;;;;;;6314309;22;20003;-92
2023/06/10 17:32:24;;;;;;;20.60;15.65;;;;;;;;;;6307009;22;20018;-88
2023/06/10 17:34:51;;;;;;;15.75;12.70;;;;;;;;;;6305728;22;20114;-83
2023/06/10 17:37:16;;;;;;;19.10;13.30;;;;;;;;;;6306729;22;20003;-84
2023/06/10 17:39:42;;;;;;;15.20;13.48;;;;;;;;;;6307144;22;20325;-89
2023/06/10 17:42:07;;;;;;;14.38;12.57;;;;;;;;;;6306575;22;20037;-86
2023/06/10 17:44:33;;;;;;;11.27;10.00;;;;;;;;;;6279498;22;20014;-86
2023/06/10 17:46:59;;;;;;;11.73;9.73;;;;;;;;;;6306353;22;20330;-85
2023/06/10 17:49:25;;;;;;;10.60;9.35;;;;;;;;;;6308068;22;20082;-93
2023/06/10 17:51:51;;;;;;;9.73;8.70;;;;;;;;;;6308956;22;20007;-87
2023/06/10 17:54:17;;;;;;;11.07;7.93;;;;;;;;;;6310134;22;20049;-89
2023/06/10 17:56:45;;;;;;;11.18;9.30;;;;;;;;;;6310654;22;20006;-83
2023/06/10 17:59:11;;;;;;;11.25;9.40;;;;;;;;;;6309805;22;20003;-82
2023/06/10 18:01:37;;;;;;;10.55;9.45;;;;;;;;;;6307537;22;20003;-85
2023/06/10 18:04:04;;;;;;;11.00;9.90;;;;;;;;;;6309438;22;20094;-95
2023/06/10 18:06:30;;;;;;;10.85;9.27;;;;;;;;;;6310008;22;20074;-91
2023/06/10 18:08:56;;;;;;;9.48;8.48;;;;;;;;;;6311408;22;20000;-86
2023/06/10 18:11:21;;;;;;;13.10;11.32;;;;;;;;;;6282832;22;20052;-96
2023/06/10 18:13:47;;;;;;;10.70;9.60;;;;;;;;;;6313641;22;20003;-86
2023/06/10 18:16:13;;;;;;;15.98;12.60;;;;;;;;;;6313985;22;20136;-86
2023/06/10 18:18:50;;;;;;;14.93;11.15;;;;;;;;;;6315113;22;20003;-94
2023/06/10 18:21:15;;;;;;;11.18;9.93;;;;;;;;;;6286607;22;20027;-84
2023/06/10 18:23:43;;;;;;;9.45;8.45;;;;;;;;;;6286723;22;20437;-95
2023/06/10 18:26:10;;;;;;;10.25;9.15;;;;;;;;;;6317412;22;20078;-95
2023/06/10 18:28:36;;;;;;;11.00;8.82;;;;;;;;;;6319277;22;20007;-93
2023/06/10 18:33:27;;;;;;;10.40;8.98;;;;;;;;;;6319413;22;20019;-96
2023/06/10 18:36:03;;;;;;;10.75;8.77;;;;;;;;;;6320234;22;20011;-96
2023/06/10 18:38:29;;;;;;;12.95;9.82;;;;;;;;;;6302675;22;20015;-95
2023/06/10 18:40:54;;;;;;;10.38;9.35;;;;;;;;;;6317952;22;20014;-94
2023/06/10 18:43:23;;;;;;;10.38;9.02;;;;;;;;;;6318661;22;20007;-96
2023/06/10 18:45:52;;;;;;;11.90;9.18;;;;;;;;;;6297931;22;20070;-95
2023/06/10 18:48:18;;;;;;;12.10;9.93;;;;;;;;;;6315378;22;20004;-96
2023/06/10 18:50:43;;;;;;;9.95;8.88;;;;;;;;;;6311607;22;20011;-96
2023/06/10 18:53:09;;;;;;;10.50;9.40;;;;;;;;;;6314102;22;20010;-93
2023/06/10 18:55:36;;;;;;;10.27;9.07;;;;;;;;;;6316407;22;20041;-92
2023/06/10 18:58:03;;;;;;;10.85;9.70;;;;;;;;;;6318693;22;20010;-92
2023/06/10 19:00:30;;;;;;;13.10;11.00;;;;;;;;;;6319945;22;20010;-94
2023/06/10 19:02:55;;;;;;;13.15;11.38;;;;;;;;;;6301474;22;20019;-90
2023/06/10 19:05:24;;;;;;;12.38;10.35;;;;;;;;;;6318865;22;20007;-95
2023/06/10 19:07:51;;;;;;;15.40;13.05;;;;;;;;;;6312913;22;19999;-92
2023/06/10 19:10:16;;;;;;;15.90;12.02;;;;;;;;;;6307577;22;20434;-83
2023/06/10 19:12:42;;;;;;;17.83;12.93;;;;;;;;;;6307623;22;20078;-85
2023/06/10 19:15:08;;;;;;;20.83;15.95;;;;;;;;;;6307895;22;20417;-89
2023/06/10 19:17:33;;;;;;;18.00;15.18;;;;;;;;;;6307005;22;20078;-91
2023/06/10 19:19:58;;;;;;;22.65;15.82;;;;;;;;;;6309649;22;20057;-86
2023/06/10 19:22:24;;;;;;;8.02;6.70;;;;;;;;;;6310911;22;20003;-90
2023/06/10 19:25:00;;;;;;;3.53;2.70;;;;;;;;;;6310606;22;20012;-93
2023/06/10 19:27:26;;;;;;;2.35;1.63;;;;;;;;;;6309132;22;20086;-93
2023/06/10 19:29:51;;;;;;;1.77;1.67;;;;;;;;;;6312102;22;20011;-94
2023/06/10 19:32:17;;;;;;;1.70;1.60;;;;;;;;;;6286151;22;20003;-95
2023/06/10 19:34:42;;;;;;;3.15;1.40;;;;;;;;;;6284933;22;19999;-96
2023/06/10 19:37:08;;;;;;;2.30;1.55;;;;;;;;;;6319807;22;19999;-95
2023/06/10 19:39:33;;;;;;;1.77;1.48;;;;;;;;;;6310954;22;20003;-95
2023/06/10 19:41:59;;;;;;;4.95;1.42;;;;;;;;;;6311207;22;20039;-88
2023/06/10 19:44:25;;;;;;;1.88;1.65;;;;;;;;;;6310500;22;20051;-85
2023/06/10 19:46:50;;;;;;;2.65;1.73;;;;;;;;;;6311958;22;20326;-93
2023/06/10 19:49:16;;;;;;;2.20;2.00;;;;;;;;;;6308856;22;20324;-90
2023/06/10 19:51:42;;;;;;;1.70;1.60;;;;;;;;;;6316219;22;20014;-93
2023/06/10 19:54:07;;;;;;;1.70;1.60;;;;;;;;;;6311329;22;20004;-88
2023/06/10 19:56:33;;;;;;;2.88;1.70;;;;;;;;;;6313118;22;19999;-89
2023/06/10 19:58:58;;;;;;;1.60;1.50;;;;;;;;;;6286100;22;20068;-88
2023/06/10 20:01:23;;;;;;;2.00;1.63;;;;;;;;;;6313014;22;20031;-89
2023/06/10 20:03:49;;;;;;;1.75;1.50;;;;;;;;;;6315078;22;20018;-88
2023/06/10 20:06:15;;;;;;;1.73;1.50;;;;;;;;;;6311360;22;20006;-88
2023/06/10 20:08:40;;;;;;;2.65;1.75;;;;;;;;;;6310676;22;20003;-89
2023/06/10 20:11:06;;;;;;;2.78;1.63;;;;;;;;;;6310661;22;20000;-95
2023/06/10 20:13:31;;;;;;;2.35;1.80;;;;;;;;;;6284265;22;20498;-89
2023/06/10 20:15:57;;;;;;;3.20;1.83;;;;;;;;;;6283635;22;20087;-88
2023/06/10 20:18:22;;;;;;;2.60;1.80;;;;;;;;;;6314591;22;20018;-92
2023/06/10 20:20:48;;;;;;;2.55;2.30;;;;;;;;;;6285402;22;20003;-88
2023/06/10 20:23:13;;;;;;;2.25;2.05;;;;;;;;;;6311297;22;20034;-89
2023/06/10 20:25:38;;;;;;;3.20;2.50;;;;;;;;;;6311608;22;20034;-92
2023/06/10 20:28:04;;;;;;;2.72;2.10;;;;;;;;;;6310488;22;20086;-96
2023/06/10 20:30:32;;;;;;;2.30;2.00;;;;;;;;;;6283136;22;20014;-96
2023/06/10 20:33:00;;;;;;;2.25;2.10;;;;;;;;;;6310514;22;20086;-88
2023/06/10 20:35:25;;;;;;;2.55;2.35;;;;;;;;;;6283758;22;20003;-91
2023/06/10 20:37:51;;;;;;;2.17;1.98;;;;;;;;;;6312260;22;19999;-87
2023/06/10 20:40:16;;;;;;;3.50;2.20;;;;;;;;;;6283272;22;20056;-87
2023/06/10 20:42:42;;;;;;;3.40;2.38;;;;;;;;;;6310071;22;20004;-91
2023/06/10 20:45:08;;;;;;;2.50;2.13;;;;;;;;;;6309998;22;20323;-86
2023/06/10 20:47:34;;;;;;;3.42;2.45;;;;;;;;;;6309639;22;20488;-86
2023/06/10 20:49:59;;;;;;;3.70;2.25;;;;;;;;;;6309678;22;20026;-89
2023/06/10 20:52:25;;;;;;;2.50;2.30;;;;;;;;;;6309059;22;20433;-91
2023/06/10 20:54:50;;;;;;;2.60;2.38;;;;;;;;;;6281634;22;20045;-86
2023/06/10 20:57:16;;;;;;;2.80;2.33;;;;;;;;;;6309194;22;19999;-86
2023/06/10 20:59:42;;;;;;;2.60;2.40;;;;;;;;;;6309440;22;20053;-86
2023/06/10 21:02:07;;;;;;;3.75;2.50;;;;;;;;;;6309090;22;20007;-86
2023/06/10 21:04:32;;;;;;;2.65;2.42;;;;;;;;;;6309048;22;20424;-87
2023/06/10 21:06:58;;;;;;;5.03;2.90;;;;;;;;;;6308973;22;20011;-86
2023/06/10 21:09:23;;;;;;;3.22;2.85;;;;;;;;;;6308990;22;20005;-86
2023/06/10 21:11:49;;;;;;;3.03;2.75;;;;;;;;;;6309108;22;19999;-86
2023/06/10 21:14:15;;;;;;;3.35;2.85;;;;;;;;;;6309211;22;19999;-87
2023/06/10 21:16:40;;;;;;;2.97;2.78;;;;;;;;;;6309107;22;20026;-85
2023/06/10 21:19:06;;;;;;;3.33;2.70;;;;;;;;;;6309012;22;19999;-86
2023/06/10 21:21:31;;;;;;;3.20;2.97;;;;;;;;;;6308945;22;20018;-86
2023/06/10 21:23:57;;;;;;;3.35;2.80;;;;;;;;;;6308870;22;20431;-86
2023/06/10 21:26:22;;;;;;;3.97;2.78;;;;;;;;;;6309263;22;20078;-89
2023/06/10 21:28:48;;;;;;;3.17;2.88;;;;;;;;;;6309565;22;20000;-89
2023/06/10 21:31:13;;;;;;;3.13;2.83;;;;;;;;;;6281440;22;20010;-86
2023/06/10 21:33:39;;;;;;;2.80;2.60;;;;;;;;;;6308728;22;20007;-87
2023/06/10 21:36:04;;;;;;;3.90;2.90;;;;;;;;;;6308860;22;19999;-86
2023/06/10 21:38:30;;;;;;;3.80;2.78;;;;;;;;;;6308986;22;20053;-89
2023/06/10 21:40:55;;;;;;;3.10;2.80;;;;;;;;;;6309612;22;20478;-87
2023/06/10 21:43:21;;;;;;;3.95;3.00;;;;;;;;;;6308199;22;20342;-86
2023/06/10 21:45:46;;;;;;;3.40;3.10;;;;;;;;;;6308807;22;20060;-90
2023/06/10 21:48:12;;;;;;;3.38;3.08;;;;;;;;;;6307392;22;20445;-90
2023/06/10 21:50:37;;;;;;;4.05;2.95;;;;;;;;;;6309208;22;20010;-87
2023/06/10 21:53:02;;;;;;;4.07;3.00;;;;;;;;;;6281312;22;20423;-86
2023/06/10 21:55:28;;;;;;;3.20;2.90;;;;;;;;;;6309605;22;19999;-87
2023/06/10 21:57:53;;;;;;;3.38;3.05;;;;;;;;;;6308819;22;20002;-89
2023/06/10 22:00:19;;;;;;;4.93;4.50;;;;;;;;;;6308137;22;20007;-87
2023/06/10 22:02:45;;;;;;;3.67;3.38;;;;;;;;;;6308163;22;20023;-91
2023/06/10 22:05:10;;;;;;;3.50;3.20;;;;;;;;;;6308568;22;20007;-87
2023/06/10 22:07:36;;;;;;;3.88;3.50;;;;;;;;;;6308279;22;20018;-91
2023/06/10 22:10:03;;;;;;;3.67;2.85;;;;;;;;;;6308675;22;20000;-87
2023/06/10 22:12:29;;;;;;;3.65;3.15;;;;;;;;;;6308221;22;20003;-88
2023/06/10 22:14:54;;;;;;;3.13;2.80;;;;;;;;;;6308489;22;20003;-91
2023/06/10 22:17:20;;;;;;;3.35;3.05;;;;;;;;;;6308557;22;20307;-87
2023/06/10 22:19:45;;;;;;;4.13;3.22;;;;;;;;;;6306784;22;20003;-88
2023/06/10 22:22:11;;;;;;;3.05;2.80;;;;;;;;;;6280900;22;20007;-87
2023/06/10 22:24:36;;;;;;;3.45;3.10;;;;;;;;;;6308759;22;20007;-87
2023/06/10 22:27:02;;;;;;;4.32;3.00;;;;;;;;;;6308340;22;20000;-86
2023/06/10 22:29:28;;;;;;;6.68;3.35;;;;;;;;;;6281355;22;20010;-90
